00 100 18 Happy Fell — W — position and weather

sailwx.info

Track history (hours):
 
Tides and Currents Weather Stations Pressure Air Temp Water Temp Dewpoint Dewpoint Depression Visibility Wind Speed Wind Dir Waves Ship Positions

00 100 18 Happy Fell

Last reported at 2017-Dec-03 13:25 UTC. Time now 2017-Dec-11 02:29 UTC.
Position N 26°46' W 079°46'.

Length 24 m; draft 1.1 m.

Type: Cargo ship. MMSI: 243071215.

Date/timePositionNaut miles runAvg speedWind from/ knotsBaromVisibWave heightAir tempDewpointWater temp
2017-Dec-03 13:25N 26°46' W 079°46'4 9.3
2017-Dec-03 13:00N 26°46' W 079°50'5 9.3
2017-Dec-03 12:30N 26°46' W 079°56'5 9.5
2017-Dec-03 12:00N 26°46' W 080°01'2 4.9
2017-Dec-03 11:30N 26°48' W 080°03'3 5.7
2017-Dec-03 11:00N 26°51' W 080°04'105501124.1
2017-Dec-03 01:37N 31°38' E 121°22'1 7.1
2017-Dec-03 01:30N 31°37' E 121°23'2 2.9
2017-Dec-03 00:49N 31°37' E 121°25'0 0.0
2017-Dec-03 00:24N 31°37' E 121°25'0 0.0
2017-Dec-03 00:00N 31°37' E 121°25'0 0.0
2017-Dec-02 23:30N 31°37' E 121°25'0 0.0
2017-Dec-02 22:58N 31°37' E 121°25'0 0.0
2017-Dec-02 22:29N 31°37' E 121°25'0 0.0
2017-Dec-02 21:57N 31°37' E 121°25'0 0.0
2017-Dec-02 21:19N 31°37' E 121°25'0 0.0
2017-Dec-02 21:00N 31°37' E 121°25'0 0.0
2017-Dec-02 20:26N 31°37' E 121°25'0 0.0
2017-Dec-02 20:00N 31°37' E 121°25'0 0.0
2017-Dec-02 19:29N 31°37' E 121°25'0 0.0
2017-Dec-02 18:58N 31°37' E 121°25'0 0.0
2017-Dec-02 18:24N 31°37' E 121°25'0 0.0
2017-Dec-02 17:55N 31°37' E 121°25'0 0.0
2017-Dec-02 17:30N 31°37' E 121°25'0 0.0
2017-Dec-02 16:55N 31°37' E 121°25'0 0.0
2017-Dec-02 16:30N 31°37' E 121°25'0 0.0
2017-Dec-02 15:58N 31°37' E 121°25'0 0.0
2017-Dec-02 15:30N 31°37' E 121°25'0 0.0
2017-Dec-02 14:50N 31°37' E 121°25'0 0.0
2017-Dec-02 14:26N 31°37' E 121°25'0 0.0
2017-Dec-02 14:01N 31°37' E 121°25'0 0.0
2017-Dec-02 13:28N 31°37' E 121°25'0 0.0
2017-Dec-02 12:57N 31°37' E 121°25'0 0.0
2017-Dec-02 12:30N 31°37' E 121°25'0 0.0
2017-Dec-02 12:00N 31°37' E 121°25'0 0.0
2017-Dec-02 11:30N 31°37' E 121°25'0 0.0
2017-Dec-02 08:28N 31°37' E 121°25'0 0.0
2017-Dec-02 07:58N 31°37' E 121°25'0 0.0
2017-Dec-02 07:23N 31°37' E 121°25'0 0.0
2017-Dec-02 06:58N 31°37' E 121°25'0 0.0
2017-Dec-02 06:30N 31°37' E 121°25'0 0.0
2017-Dec-02 05:58N 31°37' E 121°25'0 0.0
2017-Dec-02 03:45N 31°37' E 121°25'0 0.0
2017-Dec-02 03:13N 31°37' E 121°25'0 0.0
2017-Dec-02 02:53N 31°37' E 121°25'0 0.0
2017-Dec-02 02:20N 31°37' E 121°25'0 0.1
2017-Dec-02 01:55N 31°37' E 121°25'0 0.0
2017-Dec-02 01:30N 31°37' E 121°25'0 0.0
2017-Dec-02 00:54N 31°37' E 121°25'0 0.0
2017-Dec-02 00:25N 31°37' E 121°25'0 0.0
2017-Dec-01 23:57N 31°37' E 121°25'0 0.0
2017-Dec-01 23:17N 31°37' E 121°25'0 0.0
2017-Dec-01 22:59N 31°37' E 121°25'0 0.0
2017-Dec-01 21:49N 31°37' E 121°25'0 0.0
2017-Dec-01 21:29N 31°37' E 121°25'0 0.0
2017-Dec-01 20:54N 31°37' E 121°25'0 0.0
2017-Dec-01 19:51N 31°37' E 121°25'0 0.0
2017-Dec-01 19:27N 31°37' E 121°25'0 0.0
2017-Dec-01 18:58N 31°37' E 121°25'0 0.0
2017-Dec-01 17:39N 31°37' E 121°25'0 0.0
2017-Dec-01 17:28N 31°37' E 121°25'0 0.0
2017-Dec-01 16:59N 31°37' E 121°25'0 0.0
2017-Dec-01 16:28N 31°37' E 121°25'0 0.0
2017-Dec-01 15:45N 31°37' E 121°25'0 0.0
2017-Dec-01 15:25N 31°37' E 121°25'0 0.0
2017-Dec-01 14:56N 31°37' E 121°25'0 0.0
2017-Dec-01 14:24N 31°37' E 121°25'0 0.0
2017-Dec-01 13:53N 31°37' E 121°25'0 0.0
2017-Dec-01 13:22N 31°37' E 121°25'0 0.0
2017-Dec-01 12:54N 31°37' E 121°25'0 0.2
2017-Dec-01 12:27N 31°37' E 121°25'0 0.4
2017-Dec-01 11:59N 31°37' E 121°25'10554258.6
2017-Nov-29 19:10N 26°51' W 080°04'0 0.0
2017-Nov-29 19:00N 26°51' W 080°04'2 3.9
2017-Nov-29 18:30N 26°53' W 080°04'4 7.7
2017-Nov-29 18:01N 26°56' W 080°05'3 6.4
2017-Nov-29 17:30N 26°60' W 080°05'104782461.5
2017-Nov-29 13:15N 31°59' E 120°26'0 0.0
2017-Nov-29 12:57N 31°59' E 120°26'0 0.0
2017-Nov-29 12:31N 31°59' E 120°26'0 0.0
2017-Nov-29 12:00N 31°59' E 120°26'0 0.0
2017-Nov-29 11:23N 31°59' E 120°26'51118.6
2017-Nov-29 10:57N 31°34' E 121°19'3 4.9
2017-Nov-29 10:17N 31°32' E 121°22'  
2017-Nov-26 23:22N 25°59' W 080°07'10632216.1
2017-Nov-24 22:09N 31°04' E 121°28'2 4.6
2017-Nov-24 21:45N 31°06' E 121°28'2 4.3
2017-Nov-24 21:15N 31°08' E 121°28'1 4.4
2017-Nov-24 21:00N 31°09' E 121°27'6 4.1
2017-Nov-24 19:38N 31°14' E 121°30'1 4.6
2017-Nov-24 19:29N 31°14' E 121°29'4 4.5
2017-Nov-24 18:37N 31°16' E 121°33'7 3.6
2017-Nov-24 16:38N 31°23' E 121°30'2 3.4
2017-Nov-24 16:08N 31°24' E 121°31'1 4.8
2017-Nov-24 15:58N 31°25' E 121°31'3 5.9
2017-Nov-24 15:23N 31°27' E 121°28'2 5.7
2017-Nov-24 15:00N 31°28' E 121°26'9 6.2
2017-Nov-24 13:35N 31°34' E 121°18'0 5.9
2017-Nov-24 13:30N 31°35' E 121°18'4 6.3
2017-Nov-24 12:50N 31°38' E 121°15'2 6.4
2017-Nov-24 12:30N 31°39' E 121°13'  
Track history (hours):
 
Tides and Currents Weather Stations Pressure Air Temp Water Temp Dewpoint Dewpoint Depression Visibility Wind Speed Wind Dir Waves Ship Positions

00 100 18 Happy Fell

Last reported at 2017-Dec-03 13:25 UTC. Time now 2017-Dec-11 02:29 UTC.
Position N 26°46' W 079°46'.

Length 24 m; draft 1.1 m.

Type: Cargo ship. MMSI: 243071215.

Date/timePositionNaut miles runAvg speedWind from/ knotsBaromVisibWave heightAir tempDewpointWater temp
2017-Dec-03 13:25N 26°46' W 079°46'4 9.3
2017-Dec-03 13:00N 26°46' W 079°50'5 9.3
2017-Dec-03 12:30N 26°46' W 079°56'5 9.5
2017-Dec-03 12:00N 26°46' W 080°01'2 4.9
2017-Dec-03 11:30N 26°48' W 080°03'3 5.7
2017-Dec-03 11:00N 26°51' W 080°04'105501124.1
2017-Dec-03 01:37N 31°38' E 121°22'1 7.1
2017-Dec-03 01:30N 31°37' E 121°23'2 2.9
2017-Dec-03 00:49N 31°37' E 121°25'0 0.0
2017-Dec-03 00:24N 31°37' E 121°25'0 0.0
2017-Dec-03 00:00N 31°37' E 121°25'0 0.0
2017-Dec-02 23:30N 31°37' E 121°25'0 0.0
2017-Dec-02 22:58N 31°37' E 121°25'0 0.0
2017-Dec-02 22:29N 31°37' E 121°25'0 0.0
2017-Dec-02 21:57N 31°37' E 121°25'0 0.0
2017-Dec-02 21:19N 31°37' E 121°25'0 0.0
2017-Dec-02 21:00N 31°37' E 121°25'0 0.0
2017-Dec-02 20:26N 31°37' E 121°25'0 0.0
2017-Dec-02 20:00N 31°37' E 121°25'0 0.0
2017-Dec-02 19:29N 31°37' E 121°25'0 0.0
2017-Dec-02 18:58N 31°37' E 121°25'0 0.0
2017-Dec-02 18:24N 31°37' E 121°25'0 0.0
2017-Dec-02 17:55N 31°37' E 121°25'0 0.0
2017-Dec-02 17:30N 31°37' E 121°25'0 0.0
2017-Dec-02 16:55N 31°37' E 121°25'0 0.0
2017-Dec-02 16:30N 31°37' E 121°25'0 0.0
2017-Dec-02 15:58N 31°37' E 121°25'0 0.0
2017-Dec-02 15:30N 31°37' E 121°25'0 0.0
2017-Dec-02 14:50N 31°37' E 121°25'0 0.0
2017-Dec-02 14:26N 31°37' E 121°25'0 0.0
2017-Dec-02 14:01N 31°37' E 121°25'0 0.0
2017-Dec-02 13:28N 31°37' E 121°25'0 0.0
2017-Dec-02 12:57N 31°37' E 121°25'0 0.0
2017-Dec-02 12:30N 31°37' E 121°25'0 0.0
2017-Dec-02 12:00N 31°37' E 121°25'0 0.0
2017-Dec-02 11:30N 31°37' E 121°25'0 0.0
2017-Dec-02 08:28N 31°37' E 121°25'0 0.0
2017-Dec-02 07:58N 31°37' E 121°25'0 0.0
2017-Dec-02 07:23N 31°37' E 121°25'0 0.0
2017-Dec-02 06:58N 31°37' E 121°25'0 0.0
2017-Dec-02 06:30N 31°37' E 121°25'0 0.0
2017-Dec-02 05:58N 31°37' E 121°25'0 0.0
2017-Dec-02 03:45N 31°37' E 121°25'0 0.0
2017-Dec-02 03:13N 31°37' E 121°25'0 0.0
2017-Dec-02 02:53N 31°37' E 121°25'0 0.0
2017-Dec-02 02:20N 31°37' E 121°25'0 0.1
2017-Dec-02 01:55N 31°37' E 121°25'0 0.0
2017-Dec-02 01:30N 31°37' E 121°25'0 0.0
2017-Dec-02 00:54N 31°37' E 121°25'0 0.0
2017-Dec-02 00:25N 31°37' E 121°25'0 0.0
2017-Dec-01 23:57N 31°37' E 121°25'0 0.0
2017-Dec-01 23:17N 31°37' E 121°25'0 0.0
2017-Dec-01 22:59N 31°37' E 121°25'0 0.0
2017-Dec-01 21:49N 31°37' E 121°25'0 0.0
2017-Dec-01 21:29N 31°37' E 121°25'0 0.0
2017-Dec-01 20:54N 31°37' E 121°25'0 0.0
2017-Dec-01 19:51N 31°37' E 121°25'0 0.0
2017-Dec-01 19:27N 31°37' E 121°25'0 0.0
2017-Dec-01 18:58N 31°37' E 121°25'0 0.0
2017-Dec-01 17:39N 31°37' E 121°25'0 0.0
2017-Dec-01 17:28N 31°37' E 121°25'0 0.0
2017-Dec-01 16:59N 31°37' E 121°25'0 0.0
2017-Dec-01 16:28N 31°37' E 121°25'0 0.0
2017-Dec-01 15:45N 31°37' E 121°25'0 0.0
2017-Dec-01 15:25N 31°37' E 121°25'0 0.0
2017-Dec-01 14:56N 31°37' E 121°25'0 0.0
2017-Dec-01 14:24N 31°37' E 121°25'0 0.0
2017-Dec-01 13:53N 31°37' E 121°25'0 0.0
2017-Dec-01 13:22N 31°37' E 121°25'0 0.0
2017-Dec-01 12:54N 31°37' E 121°25'0 0.2
2017-Dec-01 12:27N 31°37' E 121°25'0 0.4
2017-Dec-01 11:59N 31°37' E 121°25'10554258.6
2017-Nov-29 19:10N 26°51' W 080°04'0 0.0
2017-Nov-29 19:00N 26°51' W 080°04'2 3.9
2017-Nov-29 18:30N 26°53' W 080°04'4 7.7
2017-Nov-29 18:01N 26°56' W 080°05'3 6.4
2017-Nov-29 17:30N 26°60' W 080°05'104782461.5
2017-Nov-29 13:15N 31°59' E 120°26'0 0.0
2017-Nov-29 12:57N 31°59' E 120°26'0 0.0
2017-Nov-29 12:31N 31°59' E 120°26'0 0.0
2017-Nov-29 12:00N 31°59' E 120°26'0 0.0
2017-Nov-29 11:23N 31°59' E 120°26'51118.6
2017-Nov-29 10:57N 31°34' E 121°19'3 4.9
2017-Nov-29 10:17N 31°32' E 121°22'  
2017-Nov-26 23:22N 25°59' W 080°07'10632216.1
2017-Nov-24 22:09N 31°04' E 121°28'2 4.6
2017-Nov-24 21:45N 31°06' E 121°28'2 4.3
2017-Nov-24 21:15N 31°08' E 121°28'1 4.4
2017-Nov-24 21:00N 31°09' E 121°27'6 4.1
2017-Nov-24 19:38N 31°14' E 121°30'1 4.6
2017-Nov-24 19:29N 31°14' E 121°29'4 4.5
2017-Nov-24 18:37N 31°16' E 121°33'7 3.6
2017-Nov-24 16:38N 31°23' E 121°30'2 3.4
2017-Nov-24 16:08N 31°24' E 121°31'1 4.8
2017-Nov-24 15:58N 31°25' E 121°31'3 5.9
2017-Nov-24 15:23N 31°27' E 121°28'2 5.7
2017-Nov-24 15:00N 31°28' E 121°26'9 6.2
2017-Nov-24 13:35N 31°34' E 121°18'0 5.9
2017-Nov-24 13:30N 31°35' E 121°18'4 6.3
2017-Nov-24 12:50N 31°38' E 121°15'2 6.4
2017-Nov-24 12:30N 31°39' E 121°13'  

Dump ship's entire track history